createdAt,value
2017-01-15T00:00:46.395Z,-7.91
2017-01-15T00:01:55.077Z,-7.99
2017-01-15T00:03:03.750Z,-8.07
2017-01-15T00:04:12.434Z,-8.13
2017-01-15T00:05:21.114Z,-8.18
2017-01-15T00:06:29.793Z,-8.28
2017-01-15T00:07:38.481Z,-8.2
2017-01-15T00:08:47.161Z,-8.18
2017-01-15T00:09:55.844Z,-8.26
2017-01-15T00:11:04.522Z,-8.24
2017-01-15T00:12:13.203Z,-8.34
2017-01-15T00:13:21.885Z,-8.39
2017-01-15T00:14:30.604Z,-8.38
2017-01-15T00:15:39.277Z,-8.42
2017-01-15T00:16:47.950Z,-8.42
2017-01-15T00:17:56.670Z,-8.44
2017-01-15T00:19:05.352Z,-8.49
2017-01-15T00:20:14.058Z,-8.47
2017-01-15T00:21:22.739Z,-8.6
2017-01-15T00:22:31.417Z,-8.62
2017-01-15T00:23:40.102Z,-8.65
2017-01-15T00:24:48.781Z,-8.7
2017-01-15T00:25:57.807Z,-8.67
2017-01-15T00:27:06.487Z,-8.75
2017-01-15T00:28:15.159Z,-8.7
2017-01-15T00:29:23.836Z,-8.65
2017-01-15T00:30:32.512Z,-8.71
2017-01-15T00:31:41.194Z,-8.7
2017-01-15T00:32:49.870Z,-8.73
2017-01-15T00:33:58.540Z,-8.57
2017-01-15T00:35:07.218Z,-8.56
2017-01-15T00:36:15.901Z,-8.38
2017-01-15T00:37:24.581Z,-8.41
2017-01-15T00:38:33.262Z,-8.38
2017-01-15T00:39:41.937Z,-8.23
2017-01-15T00:40:50.614Z,-8.2
2017-01-15T00:41:59.291Z,-8.23
2017-01-15T00:43:07.971Z,-8.07
2017-01-15T00:44:16.653Z,-8.02
2017-01-15T00:45:25.328Z,-8.02
2017-01-15T00:46:34.006Z,-7.94
2017-01-15T00:47:42.692Z,-7.7
2017-01-15T00:48:51.370Z,-7.52
2017-01-15T00:50:00.055Z,-7.56
2017-01-15T00:51:08.737Z,-7.55
2017-01-15T00:52:17.414Z,-7.52
2017-01-15T00:53:26.093Z,-7.45
2017-01-15T00:54:34.770Z,-7.46
2017-01-15T00:55:43.446Z,-7.55
2017-01-15T00:56:52.130Z,-7.6
2017-01-15T00:58:00.810Z,-7.56
2017-01-15T00:59:09.492Z,-7.57
2017-01-15T01:00:18.168Z,-7.64
2017-01-15T01:01:26.845Z,-7.75
2017-01-15T01:02:35.527Z,-7.73
2017-01-15T01:03:44.205Z,-7.74
2017-01-15T01:04:52.885Z,-7.74
2017-01-15T01:06:01.586Z,-7.62
2017-01-15T01:07:10.265Z,-7.6
2017-01-15T01:08:18.942Z,-7.52
2017-01-15T01:09:27.618Z,-7.57
2017-01-15T01:10:36.303Z,-7.62
2017-01-15T01:11:44.976Z,-7.56
2017-01-15T01:12:53.659Z,-7.48
2017-01-15T01:14:02.399Z,-7.52
2017-01-15T01:15:11.079Z,-7.44
2017-01-15T01:16:19.782Z,-7.48
2017-01-15T01:17:28.461Z,-7.53
2017-01-15T01:18:37.140Z,-7.53
2017-01-15T01:19:45.822Z,-7.53
2017-01-15T01:20:54.513Z,-7.55
2017-01-15T01:22:03.224Z,-7.55
2017-01-15T01:23:11.906Z,-7.57
2017-01-15T01:24:20.583Z,-7.53
2017-01-15T01:25:29.268Z,-7.55
2017-01-15T01:26:37.944Z,-7.5
2017-01-15T01:27:46.630Z,-7.62
2017-01-15T01:28:55.308Z,-7.7
2017-01-15T01:30:03.983Z,-7.56
2017-01-15T01:31:12.686Z,-7.73
2017-01-15T01:32:21.360Z,-7.78
2017-01-15T01:33:30.039Z,-7.81
2017-01-15T01:34:38.730Z,-7.78
2017-01-15T01:35:47.411Z,-7.83
2017-01-15T01:36:56.094Z,-7.94
2017-01-15T01:38:04.773Z,-7.88
2017-01-15T01:39:13.454Z,-7.95
2017-01-15T01:40:22.131Z,-8.07
2017-01-15T01:41:30.817Z,-8.1
2017-01-15T01:42:39.497Z,-8.21
2017-01-15T01:43:48.179Z,-8.26
2017-01-15T01:44:56.863Z,-8.23
2017-01-15T01:46:05.548Z,-8.39
2017-01-15T01:47:14.268Z,-8.39
2017-01-15T01:48:22.942Z,-8.46
2017-01-15T01:49:31.623Z,-8.57
2017-01-15T01:50:40.296Z,-8.47
2017-01-15T01:51:48.970Z,-8.56
2017-01-15T01:52:57.674Z,-8.62
2017-01-15T01:54:06.356Z,-8.74
2017-01-15T01:55:15.027Z,-8.77
2017-01-15T01:56:23.701Z,-8.86
2017-01-15T01:57:32.381Z,-8.96
2017-01-15T01:58:41.051Z,-8.95
2017-01-15T01:59:49.730Z,-8.94
2017-01-15T02:00:58.408Z,-8.86
2017-01-15T02:02:07.091Z,-8.75
2017-01-15T02:03:15.769Z,-8.52
2017-01-15T02:04:24.453Z,-8.41
2017-01-15T02:05:33.131Z,-8.39
2017-01-15T02:06:41.806Z,-8.23
2017-01-15T02:07:50.880Z,-8.13
2017-01-15T02:08:59.559Z,-8.11
2017-01-15T02:10:08.243Z,-8.1
2017-01-15T02:11:16.927Z,-8.07
2017-01-15T02:12:25.613Z,-7.96
2017-01-15T02:13:34.296Z,-7.98
2017-01-15T02:14:42.980Z,-7.92
2017-01-15T02:15:51.687Z,-7.85
2017-01-15T02:17:00.362Z,-7.75
2017-01-15T02:18:09.038Z,-7.73
2017-01-15T02:19:17.736Z,-7.71
2017-01-15T02:20:26.418Z,-7.62
2017-01-15T02:21:35.092Z,-7.48
2017-01-15T02:22:43.775Z,-7.52
2017-01-15T02:23:52.452Z,-7.39
2017-01-15T02:25:01.126Z,-7.3
2017-01-15T02:26:09.807Z,-7.23
2017-01-15T02:27:18.508Z,-7.09
2017-01-15T02:28:27.214Z,-7.05
2017-01-15T02:29:35.890Z,-6.99
2017-01-15T02:30:44.599Z,-6.95
2017-01-15T02:31:53.274Z,-6.88
2017-01-15T02:33:01.950Z,-6.88
2017-01-15T02:34:10.635Z,-7.05
2017-01-15T02:35:19.316Z,-6.92
2017-01-15T02:36:27.995Z,-6.91
2017-01-15T02:37:36.675Z,-6.99
2017-01-15T02:38:45.350Z,-7.02
2017-01-15T02:39:54.030Z,-7.07
2017-01-15T02:41:02.713Z,-7.1
2017-01-15T02:42:11.389Z,-7.3
2017-01-15T02:43:20.071Z,-7.35
2017-01-15T02:44:28.749Z,-7.42
2017-01-15T02:45:37.427Z,-7.48
2017-01-15T02:46:46.115Z,-7.63
2017-01-15T02:47:54.799Z,-7.71
2017-01-15T02:49:03.479Z,-7.83
2017-01-15T02:50:12.155Z,-7.92
2017-01-15T02:51:20.845Z,-7.99
2017-01-15T02:52:29.716Z,-7.98
2017-01-15T02:53:38.581Z,-8.24
2017-01-15T02:54:47.262Z,-8.2
2017-01-15T02:55:55.949Z,-8.32
2017-01-15T02:57:04.624Z,-8.34
2017-01-15T02:58:13.323Z,-8.42
2017-01-15T02:59:21.998Z,-8.53
2017-01-15T03:00:30.678Z,-8.59
2017-01-15T03:01:39.355Z,-8.49
2017-01-15T03:02:48.029Z,-8.44
2017-01-15T03:03:56.710Z,-8.52
2017-01-15T03:05:05.387Z,-8.41
2017-01-15T03:06:14.229Z,-8.36
2017-01-15T03:07:22.913Z,-8.38
2017-01-15T03:08:31.591Z,-8.36
2017-01-15T03:09:40.269Z,-8.35
2017-01-15T03:10:48.944Z,-8.24
2017-01-15T03:11:57.624Z,-8.18
2017-01-15T03:13:06.311Z,-8.17
2017-01-15T03:14:14.986Z,-8.2
2017-01-15T03:15:23.666Z,-8.2
2017-01-15T03:16:32.341Z,-8.13
2017-01-15T03:17:41.365Z,-8.11
2017-01-15T03:18:50.043Z,-7.94
2017-01-15T03:19:58.723Z,-7.83
2017-01-15T03:21:07.433Z,-7.73
2017-01-15T03:22:16.111Z,-7.57
2017-01-15T03:23:24.792Z,-7.71
2017-01-15T03:24:33.467Z,-7.89
2017-01-15T03:25:42.142Z,-7.99
2017-01-15T03:26:50.827Z,-8.18
2017-01-15T03:27:59.534Z,-8.42
2017-01-15T03:29:08.209Z,-8.54
2017-01-15T03:30:17.286Z,-8.71
2017-01-15T03:31:25.964Z,-8.84
2017-01-15T03:32:34.647Z,-8.88
2017-01-15T03:33:43.325Z,-8.88
2017-01-15T03:34:52.000Z,-8.7
2017-01-15T03:36:00.681Z,-8.71
2017-01-15T03:37:09.361Z,-8.56
2017-01-15T03:38:18.037Z,-8.59
2017-01-15T03:39:26.715Z,-8.44
2017-01-15T03:40:35.386Z,-8.42
2017-01-15T03:41:44.063Z,-8.36
2017-01-15T03:42:52.740Z,-8.21
2017-01-15T03:44:01.416Z,-8.05
2017-01-15T03:45:10.122Z,-7.99
2017-01-15T03:46:18.802Z,-7.85
2017-01-15T03:47:27.483Z,-7.73
2017-01-15T03:48:36.168Z,-7.64
2017-01-15T03:49:44.843Z,-7.53
2017-01-15T03:50:53.516Z,-7.53
2017-01-15T03:52:02.196Z,-7.48
2017-01-15T03:53:10.880Z,-7.42
2017-01-15T03:54:19.559Z,-7.45
2017-01-15T03:55:28.238Z,-7.32
2017-01-15T03:56:36.920Z,-7.27
2017-01-15T03:57:45.602Z,-7.17
2017-01-15T03:58:54.298Z,-7.06
2017-01-15T04:00:02.981Z,-7.05
2017-01-15T04:01:11.658Z,-7.07
2017-01-15T04:02:20.336Z,-7.03
2017-01-15T04:03:29.016Z,-7
2017-01-15T04:04:37.692Z,-7.07
2017-01-15T04:05:46.376Z,-7.06
2017-01-15T04:06:55.058Z,-6.99
2017-01-15T04:08:03.740Z,-6.97
2017-01-15T04:09:12.421Z,-7.06
2017-01-15T04:10:21.105Z,-7.09
2017-01-15T04:11:29.787Z,-7.17
2017-01-15T04:12:38.472Z,-7.18
2017-01-15T04:13:47.149Z,-7.17
2017-01-15T04:14:55.829Z,-7.1
2017-01-15T04:16:04.517Z,-7.17
2017-01-15T04:17:13.191Z,-7.18
2017-01-15T04:18:21.873Z,-7.27
2017-01-15T04:19:30.556Z,-7.35
2017-01-15T04:20:39.231Z,-7.39
2017-01-15T04:21:47.913Z,-7.44
2017-01-15T04:22:56.594Z,-7.56
2017-01-15T04:24:05.280Z,-7.55
2017-01-15T04:25:13.957Z,-7.63
2017-01-15T04:26:22.633Z,-7.56
2017-01-15T04:27:31.323Z,-7.73
2017-01-15T04:28:40.001Z,-7.67
2017-01-15T04:29:48.681Z,-7.83
2017-01-15T04:30:57.361Z,-7.84
2017-01-15T04:32:06.040Z,-7.85
2017-01-15T04:33:14.724Z,-7.73
2017-01-15T04:34:23.405Z,-7.59
2017-01-15T04:35:32.085Z,-7.64
2017-01-15T04:36:40.791Z,-7.57
2017-01-15T04:37:49.470Z,-7.57
2017-01-15T04:38:58.151Z,-7.64
2017-01-15T04:40:06.833Z,-7.73
2017-01-15T04:41:15.509Z,-7.89
2017-01-15T04:42:24.188Z,-7.92
2017-01-15T04:43:32.863Z,-7.94
2017-01-15T04:44:41.544Z,-8.13
2017-01-15T04:45:50.222Z,-8.17
2017-01-15T04:46:58.895Z,-8.24
2017-01-15T04:48:07.570Z,-8.39
2017-01-15T04:49:16.247Z,-8.38
2017-01-15T04:50:24.922Z,-8.46
2017-01-15T04:51:33.607Z,-8.59
2017-01-15T04:52:42.285Z,-8.59
2017-01-15T04:53:50.969Z,-8.57
2017-01-15T04:54:59.653Z,-8.57
2017-01-15T04:56:08.733Z,-8.41
2017-01-15T04:57:17.412Z,-8.44
2017-01-15T04:58:26.084Z,-8.62
2017-01-15T04:59:34.765Z,-8.59
2017-01-15T05:00:43.442Z,-8.56
2017-01-15T05:01:52.127Z,-8.62
2017-01-15T05:03:00.811Z,-8.59
2017-01-15T05:04:09.494Z,-8.68
2017-01-15T05:05:18.169Z,-8.6
2017-01-15T05:06:26.851Z,-8.62
2017-01-15T05:07:35.530Z,-8.41
2017-01-15T05:08:44.212Z,-8.23
2017-01-15T05:09:52.912Z,-8.2
2017-01-15T05:11:01.586Z,-8.18
2017-01-15T05:12:10.260Z,-8.28
2017-01-15T05:13:18.939Z,-8.23
2017-01-15T05:14:28.009Z,-8.14
2017-01-15T05:15:36.684Z,-8.1
2017-01-15T05:16:45.361Z,-8.1
2017-01-15T05:17:54.039Z,-8.1
2017-01-15T05:19:02.715Z,-8.1
2017-01-15T05:20:11.395Z,-8.05
2017-01-15T05:21:20.070Z,-7.96
2017-01-15T05:22:28.751Z,-7.98
2017-01-15T05:23:37.435Z,-7.83
2017-01-15T05:24:46.146Z,-7.73
2017-01-15T05:25:54.818Z,-7.75
2017-01-15T05:27:03.899Z,-7.55
2017-01-15T05:28:12.574Z,-7.57
2017-01-15T05:29:21.248Z,-7.52
2017-01-15T05:30:29.924Z,-7.52
2017-01-15T05:31:38.602Z,-7.5
2017-01-15T05:32:47.279Z,-7.45
2017-01-15T05:33:55.958Z,-7.34
2017-01-15T05:35:04.640Z,-7.35
2017-01-15T05:36:13.322Z,-7.35
2017-01-15T05:37:22.029Z,-7.35
2017-01-15T05:38:31.096Z,-7.27
2017-01-15T05:39:39.775Z,-7.34
2017-01-15T05:40:48.457Z,-7.27
2017-01-15T05:41:57.137Z,-7.28
2017-01-15T05:43:05.821Z,-7.23
2017-01-15T05:44:14.505Z,-7.27
2017-01-15T05:45:23.182Z,-7.35
2017-01-15T05:46:31.856Z,-7.28
2017-01-15T05:47:40.536Z,-7.35
2017-01-15T05:48:49.220Z,-7.35
2017-01-15T05:49:57.901Z,-7.39
2017-01-15T05:51:06.583Z,-7.53
2017-01-15T05:52:15.265Z,-7.5
2017-01-15T05:53:23.950Z,-7.52
2017-01-15T05:54:32.624Z,-7.48
2017-01-15T05:55:41.310Z,-7.57
2017-01-15T05:56:49.990Z,-7.56
2017-01-15T05:57:58.671Z,-7.53
2017-01-15T05:59:07.349Z,-7.5
2017-01-15T06:00:16.030Z,-7.56
2017-01-15T06:01:24.702Z,-7.55
2017-01-15T06:02:33.378Z,-7.52
2017-01-15T06:03:42.055Z,-7.64
2017-01-15T06:04:50.735Z,-7.81
2017-01-15T06:05:59.411Z,-7.67
2017-01-15T06:07:08.090Z,-7.85
2017-01-15T06:08:16.769Z,-7.88
2017-01-15T06:09:25.443Z,-7.92
2017-01-15T06:10:34.127Z,-7.85
2017-01-15T06:11:43.206Z,-7.89
2017-01-15T06:12:51.893Z,-7.85
2017-01-15T06:14:00.575Z,-7.75
2017-01-15T06:15:09.254Z,-7.67
2017-01-15T06:16:17.933Z,-7.73
2017-01-15T06:17:26.609Z,-7.81
2017-01-15T06:18:35.284Z,-7.89
2017-01-15T06:19:43.961Z,-7.92
2017-01-15T06:20:52.640Z,-7.85
2017-01-15T06:22:01.318Z,-7.83
2017-01-15T06:23:10.002Z,-7.85
2017-01-15T06:24:18.681Z,-7.8
2017-01-15T06:25:27.358Z,-7.73
2017-01-15T06:26:36.035Z,-7.73
2017-01-15T06:27:44.709Z,-7.6
2017-01-15T06:28:53.386Z,-7.52
2017-01-15T06:30:02.066Z,-7.52
2017-01-15T06:31:10.746Z,-7.5
2017-01-15T06:32:19.425Z,-7.39
2017-01-15T06:33:28.107Z,-7.45
2017-01-15T06:34:36.781Z,-7.45
2017-01-15T06:35:45.456Z,-7.34
2017-01-15T06:36:54.131Z,-7.32
2017-01-15T06:38:02.808Z,-7.27
2017-01-15T06:39:11.482Z,-7.27
2017-01-15T06:40:20.159Z,-7.27
2017-01-15T06:41:28.839Z,-7.36
2017-01-15T06:42:37.521Z,-7.3
2017-01-15T06:43:46.200Z,-7.34
2017-01-15T06:44:54.883Z,-7.36
2017-01-15T06:46:03.565Z,-7.45
2017-01-15T06:47:12.244Z,-7.53
2017-01-15T06:48:20.924Z,-7.46
2017-01-15T06:49:29.603Z,-7.52
2017-01-15T06:50:38.293Z,-7.6
2017-01-15T06:51:46.973Z,-7.74
2017-01-15T06:52:55.656Z,-7.77
2017-01-15T06:54:04.331Z,-7.73
2017-01-15T06:55:13.011Z,-7.62
2017-01-15T06:56:21.692Z,-7.63
2017-01-15T06:57:30.373Z,-7.55
2017-01-15T06:58:39.053Z,-7.6
2017-01-15T06:59:47.761Z,-7.59
2017-01-15T07:00:56.437Z,-7.56
2017-01-15T07:02:05.117Z,-7.46
2017-01-15T07:03:13.800Z,-7.45
2017-01-15T07:04:22.481Z,-7.3
2017-01-15T07:05:31.159Z,-7.3
2017-01-15T07:06:39.838Z,-7.28
2017-01-15T07:07:48.515Z,-7.27
2017-01-15T07:08:57.193Z,-7.24
2017-01-15T07:10:05.873Z,-7.25
2017-01-15T07:11:14.554Z,-7.28
2017-01-15T07:12:23.252Z,-7.34
2017-01-15T07:13:31.928Z,-7.34
2017-01-15T07:14:40.602Z,-7.48
2017-01-15T07:15:49.279Z,-7.5
2017-01-15T07:16:57.956Z,-7.6
2017-01-15T07:18:06.636Z,-7.5
2017-01-15T07:19:15.320Z,-7.74
2017-01-15T07:20:24.000Z,-7.66
2017-01-15T07:21:32.677Z,-7.66
2017-01-15T07:22:41.357Z,-7.74
2017-01-15T07:23:50.036Z,-7.64
2017-01-15T07:24:58.713Z,-7.73
2017-01-15T07:26:07.420Z,-7.71
2017-01-15T07:27:16.100Z,-7.59
2017-01-15T07:28:24.777Z,-7.59
2017-01-15T07:29:33.454Z,-7.57
2017-01-15T07:30:42.129Z,-7.6
2017-01-15T07:31:50.809Z,-7.55
2017-01-15T07:32:59.490Z,-7.52
2017-01-15T07:34:08.172Z,-7.44
2017-01-15T07:35:16.904Z,-7.41
2017-01-15T07:36:25.581Z,-7.38
2017-01-15T07:37:34.258Z,-7.27
2017-01-15T07:38:42.939Z,-7.28
2017-01-15T07:39:51.620Z,-7.28
2017-01-15T07:41:00.306Z,-7.24
2017-01-15T07:42:09.001Z,-7.2
2017-01-15T07:43:17.688Z,-7.17
2017-01-15T07:44:26.367Z,-7.18
2017-01-15T07:45:35.051Z,-7.27
2017-01-15T07:46:43.727Z,-7.35
2017-01-15T07:47:52.410Z,-7.34
2017-01-15T07:49:01.089Z,-7.3
2017-01-15T07:50:09.803Z,-7.41
2017-01-15T07:51:18.484Z,-7.39
2017-01-15T07:52:27.162Z,-7.48
2017-01-15T07:53:35.863Z,-7.52
2017-01-15T07:54:44.553Z,-7.55
2017-01-15T07:55:53.231Z,-7.46
2017-01-15T07:57:01.913Z,-7.57
2017-01-15T07:58:10.594Z,-7.66
2017-01-15T07:59:19.270Z,-7.64
2017-01-15T08:00:27.945Z,-7.7
2017-01-15T08:01:36.636Z,-7.85
2017-01-15T08:02:45.317Z,-7.88
2017-01-15T08:03:53.991Z,-7.84
2017-01-15T08:05:02.670Z,-7.8
2017-01-15T08:06:11.350Z,-7.74
2017-01-15T08:07:20.033Z,-7.85
2017-01-15T08:08:28.712Z,-7.74
2017-01-15T08:09:37.400Z,-7.73
2017-01-15T08:10:46.070Z,-7.66
2017-01-15T08:11:54.750Z,-7.71
2017-01-15T08:13:03.434Z,-7.67
2017-01-15T08:14:12.112Z,-7.66
2017-01-15T08:15:20.790Z,-7.64
2017-01-15T08:16:29.472Z,-7.55
2017-01-15T08:17:38.150Z,-7.56
2017-01-15T08:18:46.829Z,-7.52
2017-01-15T08:19:55.507Z,-7.56
2017-01-15T08:21:04.214Z,-7.5
2017-01-15T08:22:12.897Z,-7.48
2017-01-15T08:23:21.571Z,-7.52
2017-01-15T08:24:30.247Z,-7.5
2017-01-15T08:25:38.921Z,-7.5
2017-01-15T08:26:47.595Z,-7.52
2017-01-15T08:27:56.277Z,-7.46
2017-01-15T08:29:04.959Z,-7.55
2017-01-15T08:30:13.635Z,-7.57
2017-01-15T08:31:22.313Z,-7.48
2017-01-15T08:32:30.992Z,-7.7
2017-01-15T08:33:39.669Z,-7.6
2017-01-15T08:34:48.351Z,-7.62
2017-01-15T08:35:57.023Z,-7.7
2017-01-15T08:37:05.729Z,-7.6
2017-01-15T08:38:14.420Z,-7.56
2017-01-15T08:39:23.100Z,-7.5
2017-01-15T08:40:31.785Z,-7.62
2017-01-15T08:41:40.465Z,-7.59
2017-01-15T08:42:49.145Z,-7.55
2017-01-15T08:43:57.828Z,-7.59
2017-01-15T08:45:06.508Z,-7.59
2017-01-15T08:46:15.191Z,-7.53
2017-01-15T08:47:23.872Z,-7.55
2017-01-15T08:48:32.548Z,-7.46
2017-01-15T08:49:41.235Z,-7.44
2017-01-15T08:50:49.919Z,-7.53
2017-01-15T08:51:58.600Z,-7.52
2017-01-15T08:53:07.276Z,-7.39
2017-01-15T08:54:15.957Z,-7.42
2017-01-15T08:55:24.637Z,-7.35
2017-01-15T08:56:33.315Z,-7.35
2017-01-15T08:57:41.993Z,-7.36
2017-01-15T08:58:50.677Z,-7.35
2017-01-15T08:59:59.356Z,-7.38
2017-01-15T09:01:08.034Z,-7.44
2017-01-15T09:02:16.717Z,-7.39
2017-01-15T09:03:25.393Z,-7.36
2017-01-15T09:04:34.071Z,-7.46
2017-01-15T09:05:42.752Z,-7.45
2017-01-15T09:06:51.433Z,-7.42
2017-01-15T09:08:00.113Z,-7.39
2017-01-15T09:09:08.791Z,-7.38
2017-01-15T09:10:17.469Z,-7.34
2017-01-15T09:11:26.143Z,-7.21
2017-01-15T09:12:34.833Z,-7.17
2017-01-15T09:13:43.515Z,-7.13
2017-01-15T09:14:52.192Z,-7.05
2017-01-15T09:16:00.905Z,-7.07
2017-01-15T09:17:09.587Z,-6.99
2017-01-15T09:18:18.370Z,-6.97
2017-01-15T09:19:27.048Z,-6.81
2017-01-15T09:20:35.777Z,-6.81
2017-01-15T09:21:44.459Z,-6.76
2017-01-15T09:22:53.161Z,-6.78
2017-01-15T09:24:01.835Z,-6.79
2017-01-15T09:25:10.529Z,-6.78
2017-01-15T09:26:19.233Z,-6.79
2017-01-15T09:27:27.913Z,-6.86
2017-01-15T09:28:36.593Z,-6.92
2017-01-15T09:29:45.274Z,-6.91
2017-01-15T09:30:53.953Z,-7.03
2017-01-15T09:32:02.634Z,-7.09
2017-01-15T09:33:11.335Z,-7.07
2017-01-15T09:34:20.010Z,-7.14
2017-01-15T09:35:28.690Z,-7.1
2017-01-15T09:36:37.371Z,-7.18
2017-01-15T09:37:46.056Z,-7.23
2017-01-15T09:38:54.730Z,-7.27
2017-01-15T09:40:03.410Z,-7.25
2017-01-15T09:41:12.087Z,-7.34
2017-01-15T09:42:20.769Z,-7.32
2017-01-15T09:43:29.450Z,-7.28
2017-01-15T09:44:38.126Z,-7.34
2017-01-15T09:45:46.803Z,-7.35
2017-01-15T09:46:55.479Z,-7.36
2017-01-15T09:48:04.158Z,-7.24
2017-01-15T09:49:12.840Z,-7.2
2017-01-15T09:50:21.521Z,-7.23
2017-01-15T09:51:30.206Z,-7.24
2017-01-15T09:52:38.887Z,-7.15
2017-01-15T09:53:47.567Z,-7.14
2017-01-15T09:54:56.241Z,-7.09
2017-01-15T09:56:05.324Z,-6.96
2017-01-15T09:57:14.003Z,-6.84
2017-01-15T09:58:22.684Z,-6.81
2017-01-15T09:59:31.363Z,-6.79
2017-01-15T10:00:40.040Z,-6.78
2017-01-15T10:01:48.750Z,-6.61
2017-01-15T10:02:57.429Z,-6.56
2017-01-15T10:04:06.113Z,-6.56
2017-01-15T10:05:14.794Z,-6.39
2017-01-15T10:06:23.504Z,-6.3
2017-01-15T10:07:32.183Z,-6.27
2017-01-15T10:08:40.877Z,-6.2
2017-01-15T10:09:49.562Z,-6.28
2017-01-15T10:10:58.249Z,-6.07
2017-01-15T10:12:06.937Z,-6.16
2017-01-15T10:13:15.619Z,-6.05
2017-01-15T10:14:24.294Z,-6.02
2017-01-15T10:15:32.977Z,-6
2017-01-15T10:16:41.664Z,-6.05
2017-01-15T10:17:50.348Z,-6.05
2017-01-15T10:18:59.424Z,-6.13
2017-01-15T10:20:08.110Z,-6.2
2017-01-15T10:21:16.791Z,-6.2
2017-01-15T10:22:25.473Z,-6.21
2017-01-15T10:23:34.156Z,-6.23
2017-01-15T10:24:42.841Z,-6.23
2017-01-15T10:25:51.517Z,-6.31
2017-01-15T10:27:00.314Z,-6.23
2017-01-15T10:28:08.992Z,-6.27
2017-01-15T10:29:17.677Z,-6.3
2017-01-15T10:30:26.353Z,-6.31
2017-01-15T10:31:35.028Z,-6.3
2017-01-15T10:32:43.711Z,-6.36
2017-01-15T10:33:52.388Z,-6.38
2017-01-15T10:35:01.069Z,-6.31
2017-01-15T10:36:09.747Z,-6.33
2017-01-15T10:37:18.427Z,-6.3
2017-01-15T10:38:27.108Z,-6.27
2017-01-15T10:39:35.783Z,-6.2
2017-01-15T10:40:44.464Z,-6.24
2017-01-15T10:41:53.141Z,-6.27
2017-01-15T10:43:01.828Z,-6.27
2017-01-15T10:44:10.510Z,-6.21
2017-01-15T10:45:19.190Z,-6.27
2017-01-15T10:46:27.883Z,-6.33
2017-01-15T10:47:36.565Z,-6.24
2017-01-15T10:48:45.243Z,-6
2017-01-15T10:49:53.923Z,-5.87
2017-01-15T10:51:02.608Z,-5.66
2017-01-15T10:52:11.295Z,-5.55
2017-01-15T10:53:19.972Z,-5.55
2017-01-15T10:54:28.679Z,-5.34
2017-01-15T10:55:37.361Z,-5.2
2017-01-15T10:56:46.039Z,-5.16
2017-01-15T10:57:54.721Z,-5.1
2017-01-15T10:59:03.400Z,-4.91
2017-01-15T11:00:12.095Z,-4.88
2017-01-15T11:01:20.780Z,-4.83
2017-01-15T11:02:29.460Z,-4.7
2017-01-15T11:03:38.167Z,-4.61
2017-01-15T11:04:46.849Z,-4.55
2017-01-15T11:05:55.536Z,-4.45
2017-01-15T11:07:04.231Z,-4.38
2017-01-15T11:08:12.937Z,-4.34
2017-01-15T11:09:21.652Z,-4.22
2017-01-15T11:10:30.335Z,-4.17
2017-01-15T11:11:39.028Z,-4.06
2017-01-15T11:12:47.718Z,-3.94
2017-01-15T11:13:56.400Z,-3.87
2017-01-15T11:15:05.089Z,-3.78
2017-01-15T11:16:13.770Z,-3.69
2017-01-15T11:17:22.452Z,-3.64
2017-01-15T11:18:31.158Z,-3.53
2017-01-15T11:19:39.843Z,-3.43
2017-01-15T11:20:48.527Z,-3.22
2017-01-15T11:21:57.222Z,-3.25
2017-01-15T11:23:05.905Z,-3.08
2017-01-15T11:24:14.593Z,-3.01
2017-01-15T11:25:23.283Z,-2.87
2017-01-15T11:26:31.968Z,-2.72
2017-01-15T11:27:40.657Z,-2.66
2017-01-15T11:28:49.341Z,-2.65
2017-01-15T11:29:58.030Z,-2.5
2017-01-15T11:31:06.714Z,-2.54
2017-01-15T11:32:15.400Z,-2.42
2017-01-15T11:33:24.087Z,-2.4
2017-01-15T11:34:32.770Z,-2.39
2017-01-15T11:35:41.457Z,-2.2
2017-01-15T11:36:50.143Z,-2.13
2017-01-15T11:37:58.836Z,-1.96
2017-01-15T11:39:07.527Z,-1.94
2017-01-15T11:40:16.217Z,-1.92
2017-01-15T11:41:24.903Z,-1.75
2017-01-15T11:42:33.588Z,-1.72
2017-01-15T11:43:42.280Z,-1.57
2017-01-15T11:44:50.974Z,-1.48
2017-01-15T11:45:59.663Z,-1.57
2017-01-15T11:47:08.350Z,-1.56
2017-01-15T11:48:17.037Z,-1.5
2017-01-15T11:49:25.730Z,-1.53
2017-01-15T11:50:34.417Z,-1.43
2017-01-15T11:51:43.102Z,-1.4
2017-01-15T11:52:51.822Z,-1.45
2017-01-15T11:54:00.513Z,-1.38
2017-01-15T11:55:09.232Z,-1.32
2017-01-15T11:56:17.914Z,-1.15
2017-01-15T11:57:26.602Z,-1
2017-01-15T11:58:35.291Z,-0.81
2017-01-15T11:59:43.974Z,-0.69
2017-01-15T12:00:52.662Z,-0.56
2017-01-15T12:02:01.352Z,-0.39
2017-01-15T12:03:10.834Z,-0.39
2017-01-15T12:04:19.517Z,-0.46
2017-01-15T12:05:28.196Z,-0.33
2017-01-15T12:06:36.888Z,-0.42
2017-01-15T12:07:45.574Z,-0.41
2017-01-15T12:08:54.257Z,-0.33
2017-01-15T12:10:02.940Z,-0.33
2017-01-15T12:11:11.628Z,-0.33
2017-01-15T12:12:20.313Z,-0.35
2017-01-15T12:13:29.003Z,-0.41
2017-01-15T12:14:37.704Z,-0.48
2017-01-15T12:15:46.393Z,-0.35
2017-01-15T12:16:55.083Z,-0.27
2017-01-15T12:18:03.767Z,-0.31
2017-01-15T12:19:12.456Z,-0.13
2017-01-15T12:20:21.151Z,-0.1
2017-01-15T12:21:29.838Z,0.01
2017-01-15T12:22:38.528Z,0.12
2017-01-15T12:23:47.213Z,0.18
2017-01-15T12:24:55.898Z,0.24
2017-01-15T12:26:04.597Z,0.33
2017-01-15T12:27:13.287Z,0.29
2017-01-15T12:28:21.989Z,0.31
2017-01-15T12:29:30.681Z,0.34
2017-01-15T12:30:39.381Z,0.45
2017-01-15T12:31:48.071Z,0.31
2017-01-15T12:32:56.761Z,0.55
2017-01-15T12:34:05.458Z,0.64
2017-01-15T12:35:14.149Z,0.81
2017-01-15T12:36:22.844Z,0.88
2017-01-15T12:37:31.546Z,0.89
2017-01-15T12:38:40.238Z,0.91
2017-01-15T12:39:48.925Z,0.94
2017-01-15T12:40:57.642Z,0.77
2017-01-15T12:42:06.347Z,0.81
2017-01-15T12:43:15.038Z,0.7
2017-01-15T12:44:23.727Z,0.7
2017-01-15T12:45:32.417Z,0.77
2017-01-15T12:46:41.106Z,0.89
2017-01-15T12:47:49.806Z,0.92
2017-01-15T12:48:58.496Z,1.03
2017-01-15T12:50:07.187Z,1.07
2017-01-15T12:51:15.878Z,1.04
2017-01-15T12:52:24.572Z,0.89
2017-01-15T12:53:33.662Z,0.99
2017-01-15T12:54:42.356Z,0.99
2017-01-15T12:55:51.053Z,0.99
2017-01-15T12:56:59.742Z,1.22
2017-01-15T12:58:08.432Z,1.22
2017-01-15T12:59:17.118Z,1.14
2017-01-15T13:00:25.808Z,1.24
2017-01-15T13:01:34.501Z,0.92
2017-01-15T13:02:43.197Z,0.95
2017-01-15T13:03:51.887Z,1.02
2017-01-15T13:05:00.570Z,0.96
2017-01-15T13:06:09.260Z,1.07
2017-01-15T13:07:17.951Z,1.16
2017-01-15T13:08:26.639Z,1.16
2017-01-15T13:09:35.326Z,1.22
2017-01-15T13:10:44.022Z,1.31
2017-01-15T13:11:52.773Z,1.2
2017-01-15T13:13:01.494Z,1.25
2017-01-15T13:14:10.182Z,1.34
2017-01-15T13:15:18.880Z,1.36
2017-01-15T13:16:27.575Z,1.31
2017-01-15T13:17:36.265Z,1.18
2017-01-15T13:18:44.973Z,0.96
2017-01-15T13:19:53.661Z,0.7
2017-01-15T13:21:02.349Z,0.66
2017-01-15T13:22:11.040Z,0.76
2017-01-15T13:23:19.729Z,0.55
2017-01-15T13:24:28.414Z,0.31
2017-01-15T13:25:37.100Z,0.47
2017-01-15T13:26:45.793Z,0.42
2017-01-15T13:27:54.518Z,0.06
2017-01-15T13:29:03.208Z,-0.39
2017-01-15T13:30:11.919Z,-0.77
2017-01-15T13:31:20.606Z,-1.21
2017-01-15T13:32:29.293Z,-1.61
2017-01-15T13:33:37.984Z,-1.97
2017-01-15T13:34:46.669Z,-2.15
2017-01-15T13:35:55.365Z,-2.33
2017-01-15T13:37:04.053Z,-2.48
2017-01-15T13:38:12.743Z,-2.7
2017-01-15T13:39:21.459Z,-2.87
2017-01-15T13:40:30.149Z,-3.09
2017-01-15T13:41:38.842Z,-3.29
2017-01-15T13:42:47.528Z,-3.37
2017-01-15T13:43:56.213Z,-3.41
2017-01-15T13:45:04.901Z,-3.47
2017-01-15T13:46:13.587Z,-3.58
2017-01-15T13:47:22.272Z,-3.64
2017-01-15T13:48:30.958Z,-3.69
2017-01-15T13:49:39.642Z,-3.81
2017-01-15T13:50:48.321Z,-3.88
2017-01-15T13:51:57.003Z,-4.04
2017-01-15T13:53:05.684Z,-4.02
2017-01-15T13:54:14.369Z,-4.05
2017-01-15T13:55:23.081Z,-4.09
2017-01-15T13:56:32.184Z,-4.14
2017-01-15T13:57:40.866Z,-4.19
2017-01-15T13:58:49.544Z,-4.16
2017-01-15T13:59:58.229Z,-4.14
2017-01-15T14:01:06.917Z,-4.19
2017-01-15T14:02:15.596Z,-4.2
2017-01-15T14:03:24.284Z,-4.24
2017-01-15T14:04:32.966Z,-4.31
2017-01-15T14:05:41.667Z,-4.34
2017-01-15T14:06:50.358Z,-4.33
2017-01-15T14:07:59.038Z,-4.42
2017-01-15T14:09:07.725Z,-4.42
2017-01-15T14:10:16.411Z,-4.44
2017-01-15T14:11:25.104Z,-4.38
2017-01-15T14:12:33.788Z,-4.42
2017-01-15T14:13:42.473Z,-4.42
2017-01-15T14:14:51.157Z,-4.45
2017-01-15T14:15:59.834Z,-4.42
2017-01-15T14:17:08.516Z,-4.47
2017-01-15T14:18:17.193Z,-4.44
2017-01-15T14:19:25.872Z,-4.45
2017-01-15T14:20:34.558Z,-4.55
2017-01-15T14:21:43.238Z,-4.65
2017-01-15T14:22:51.920Z,-4.7
2017-01-15T14:24:00.609Z,-4.76
2017-01-15T14:25:09.295Z,-4.88
2017-01-15T14:26:17.975Z,-4.84
2017-01-15T14:27:26.655Z,-4.97
2017-01-15T14:28:35.340Z,-4.97
2017-01-15T14:29:44.047Z,-5.09
2017-01-15T14:30:52.732Z,-5.1
2017-01-15T14:32:01.417Z,-5.08
2017-01-15T14:33:12.152Z,-5.09
2017-01-15T14:34:20.831Z,-5.06
2017-01-15T14:35:29.512Z,-5.13
2017-01-15T14:36:38.194Z,-5.21
2017-01-15T14:37:46.877Z,-5.17
2017-01-15T14:38:55.557Z,-5.21
2017-01-15T14:40:04.239Z,-5.3
2017-01-15T14:41:12.920Z,-5.28
2017-01-15T14:42:21.602Z,-5.19
2017-01-15T14:43:30.308Z,-5.2
2017-01-15T14:44:38.988Z,-5.2
2017-01-15T14:45:47.686Z,-5.23
2017-01-15T14:46:56.372Z,-5.13
2017-01-15T14:48:05.076Z,-5.21
2017-01-15T14:49:13.764Z,-5.19
2017-01-15T14:50:22.697Z,-5.19